sensor_id;sensor_type;location;lat;lon;timestamp;P1;durP1;ratioP1;P2;durP2;ratioP2
46931;SDS011;32670;51.464;11.964;2023-04-03T00:00:25;3.27;;;1.30;;
46931;SDS011;32670;51.464;11.964;2023-04-03T00:02:50;3.20;;;1.40;;
46931;SDS011;32670;51.464;11.964;2023-04-03T00:05:16;1.63;;;1.33;;
46931;SDS011;32670;51.464;11.964;2023-04-03T00:07:41;2.17;;;1.30;;
46931;SDS011;32670;51.464;11.964;2023-04-03T00:10:07;2.00;;;1.73;;
46931;SDS011;32670;51.464;11.964;2023-04-03T00:12:33;1.70;;;1.40;;
46931;SDS011;32670;51.464;11.964;2023-04-03T00:14:58;2.50;;;1.37;;
46931;SDS011;32670;51.464;11.964;2023-04-03T00:17:24;1.63;;;1.33;;
46931;SDS011;32670;51.464;11.964;2023-04-03T00:19:50;1.60;;;1.30;;
46931;SDS011;32670;51.464;11.964;2023-04-03T00:22:15;2.40;;;1.67;;
46931;SDS011;32670;51.464;11.964;2023-04-03T00:24:43;3.47;;;1.50;;
46931;SDS011;32670;51.464;11.964;2023-04-03T00:27:09;2.50;;;1.40;;
46931;SDS011;32670;51.464;11.964;2023-04-03T00:29:36;1.70;;;1.60;;
46931;SDS011;32670;51.464;11.964;2023-04-03T00:32:01;2.13;;;1.40;;
46931;SDS011;32670;51.464;11.964;2023-04-03T00:34:26;1.40;;;1.30;;
46931;SDS011;32670;51.464;11.964;2023-04-03T00:36:52;1.40;;;1.20;;
46931;SDS011;32670;51.464;11.964;2023-04-03T00:39:17;3.03;;;1.20;;
46931;SDS011;32670;51.464;11.964;2023-04-03T00:41:43;1.33;;;1.23;;
46931;SDS011;32670;51.464;11.964;2023-04-03T00:46:53;2.10;;;1.33;;
46931;SDS011;32670;51.464;11.964;2023-04-03T00:49:18;1.00;;;0.90;;
46931;SDS011;32670;51.464;11.964;2023-04-03T00:51:44;4.50;;;1.40;;
46931;SDS011;32670;51.464;11.964;2023-04-03T00:54:10;2.07;;;1.13;;
46931;SDS011;32670;51.464;11.964;2023-04-03T00:56:36;1.60;;;1.33;;
46931;SDS011;32670;51.464;11.964;2023-04-03T00:59:06;1.37;;;1.27;;
46931;SDS011;32670;51.464;11.964;2023-04-03T01:01:36;2.87;;;1.17;;
46931;SDS011;32670;51.464;11.964;2023-04-03T01:04:03;1.87;;;1.30;;
46931;SDS011;32670;51.464;11.964;2023-04-03T01:06:32;1.40;;;1.30;;
46931;SDS011;32670;51.464;11.964;2023-04-03T01:08:59;1.50;;;1.30;;
46931;SDS011;32670;51.464;11.964;2023-04-03T01:11:26;1.50;;;1.40;;
46931;SDS011;32670;51.464;11.964;2023-04-03T01:13:51;2.37;;;1.40;;
46931;SDS011;32670;51.464;11.964;2023-04-03T01:16:17;2.30;;;1.40;;
46931;SDS011;32670;51.464;11.964;2023-04-03T01:18:43;3.73;;;1.40;;
46931;SDS011;32670;51.464;11.964;2023-04-03T01:23:57;1.60;;;1.30;;
46931;SDS011;32670;51.464;11.964;2023-04-03T01:26:43;4.70;;;1.30;;
46931;SDS011;32670;51.464;11.964;2023-04-03T01:29:09;1.50;;;1.20;;
46931;SDS011;32670;51.464;11.964;2023-04-03T01:34:00;2.50;;;1.50;;
46931;SDS011;32670;51.464;11.964;2023-04-03T01:36:28;1.13;;;1.03;;
46931;SDS011;32670;51.464;11.964;2023-04-03T01:38:56;1.97;;;1.20;;
46931;SDS011;32670;51.464;11.964;2023-04-03T01:41:24;2.20;;;1.03;;
46931;SDS011;32670;51.464;11.964;2023-04-03T01:43:50;1.67;;;1.20;;
46931;SDS011;32670;51.464;11.964;2023-04-03T01:46:16;1.83;;;1.20;;
46931;SDS011;32670;51.464;11.964;2023-04-03T01:48:42;1.33;;;1.10;;
46931;SDS011;32670;51.464;11.964;2023-04-03T01:51:08;3.67;;;1.20;;
46931;SDS011;32670;51.464;11.964;2023-04-03T01:53:33;3.13;;;1.10;;
46931;SDS011;32670;51.464;11.964;2023-04-03T01:55:59;2.00;;;1.40;;
46931;SDS011;32670;51.464;11.964;2023-04-03T01:58:24;1.33;;;1.07;;
46931;SDS011;32670;51.464;11.964;2023-04-03T02:00:50;2.30;;;1.27;;
46931;SDS011;32670;51.464;11.964;2023-04-03T02:03:17;7.27;;;1.40;;
46931;SDS011;32670;51.464;11.964;2023-04-03T02:05:42;1.43;;;1.27;;
46931;SDS011;32670;51.464;11.964;2023-04-03T02:08:08;1.87;;;1.30;;
46931;SDS011;32670;51.464;11.964;2023-04-03T02:10:33;5.60;;;1.30;;
46931;SDS011;32670;51.464;11.964;2023-04-03T02:12:59;1.40;;;1.20;;
46931;SDS011;32670;51.464;11.964;2023-04-03T02:15:24;4.00;;;1.10;;
46931;SDS011;32670;51.464;11.964;2023-04-03T02:17:50;2.37;;;1.20;;
46931;SDS011;32670;51.464;11.964;2023-04-03T02:20:15;1.30;;;1.03;;
46931;SDS011;32670;51.464;11.964;2023-04-03T02:22:41;1.87;;;1.20;;
46931;SDS011;32670;51.464;11.964;2023-04-03T02:25:06;1.67;;;1.20;;
46931;SDS011;32670;51.464;11.964;2023-04-03T02:27:32;3.20;;;1.67;;
46931;SDS011;32670;51.464;11.964;2023-04-03T02:29:58;2.03;;;1.30;;
46931;SDS011;32670;51.464;11.964;2023-04-03T02:32:23;1.40;;;1.10;;
46931;SDS011;32670;51.464;11.964;2023-04-03T02:34:49;3.67;;;1.30;;
46931;SDS011;32670;51.464;11.964;2023-04-03T02:37:14;2.00;;;1.30;;
46931;SDS011;32670;51.464;11.964;2023-04-03T02:39:40;1.77;;;1.20;;
46931;SDS011;32670;51.464;11.964;2023-04-03T02:42:05;5.63;;;1.33;;
46931;SDS011;32670;51.464;11.964;2023-04-03T02:44:32;1.97;;;1.27;;
46931;SDS011;32670;51.464;11.964;2023-04-03T02:46:57;2.60;;;1.23;;
46931;SDS011;32670;51.464;11.964;2023-04-03T02:49:23;1.60;;;1.43;;
46931;SDS011;32670;51.464;11.964;2023-04-03T02:51:48;1.63;;;1.20;;
46931;SDS011;32670;51.464;11.964;2023-04-03T02:54:14;1.57;;;1.30;;
46931;SDS011;32670;51.464;11.964;2023-04-03T02:56:39;1.20;;;1.07;;
46931;SDS011;32670;51.464;11.964;2023-04-03T02:59:05;1.50;;;1.00;;
46931;SDS011;32670;51.464;11.964;2023-04-03T03:01:31;1.63;;;1.03;;
46931;SDS011;32670;51.464;11.964;2023-04-03T03:03:58;1.53;;;1.17;;
46931;SDS011;32670;51.464;11.964;2023-04-03T03:06:24;1.10;;;1.00;;
46931;SDS011;32670;51.464;11.964;2023-04-03T03:08:49;2.17;;;1.00;;
46931;SDS011;32670;51.464;11.964;2023-04-03T03:11:15;1.43;;;1.20;;
46931;SDS011;32670;51.464;11.964;2023-04-03T03:13:40;1.97;;;1.20;;
46931;SDS011;32670;51.464;11.964;2023-04-03T03:16:06;1.00;;;1.00;;
46931;SDS011;32670;51.464;11.964;2023-04-03T03:18:32;2.30;;;1.27;;
46931;SDS011;32670;51.464;11.964;2023-04-03T03:20:59;3.63;;;1.43;;
46931;SDS011;32670;51.464;11.964;2023-04-03T03:23:26;1.20;;;1.10;;
46931;SDS011;32670;51.464;11.964;2023-04-03T03:25:58;1.77;;;0.93;;
46931;SDS011;32670;51.464;11.964;2023-04-03T03:28:26;1.43;;;1.20;;
46931;SDS011;32670;51.464;11.964;2023-04-03T03:30:52;1.37;;;1.10;;
46931;SDS011;32670;51.464;11.964;2023-04-03T03:33:18;1.60;;;1.20;;
46931;SDS011;32670;51.464;11.964;2023-04-03T03:35:43;5.13;;;1.27;;
46931;SDS011;32670;51.464;11.964;2023-04-03T03:38:09;0.90;;;0.90;;
46931;SDS011;32670;51.464;11.964;2023-04-03T03:40:35;2.90;;;1.10;;
46931;SDS011;32670;51.464;11.964;2023-04-03T03:43:00;1.20;;;1.10;;
46931;SDS011;32670;51.464;11.964;2023-04-03T03:45:26;1.70;;;1.17;;
46931;SDS011;32670;51.464;11.964;2023-04-03T03:47:52;1.20;;;1.10;;
46931;SDS011;32670;51.464;11.964;2023-04-03T03:50:17;1.83;;;1.00;;
46931;SDS011;32670;51.464;11.964;2023-04-03T03:52:43;1.50;;;1.00;;
46931;SDS011;32670;51.464;11.964;2023-04-03T03:55:09;2.57;;;1.20;;
46931;SDS011;32670;51.464;11.964;2023-04-03T03:57:35;1.23;;;1.13;;
46931;SDS011;32670;51.464;11.964;2023-04-03T04:00:00;1.00;;;0.90;;
46931;SDS011;32670;51.464;11.964;2023-04-03T04:02:26;1.57;;;1.03;;
46931;SDS011;32670;51.464;11.964;2023-04-03T04:04:51;1.13;;;1.00;;
46931;SDS011;32670;51.464;11.964;2023-04-03T04:07:17;1.33;;;1.10;;
46931;SDS011;32670;51.464;11.964;2023-04-03T04:09:42;1.37;;;0.90;;
46931;SDS011;32670;51.464;11.964;2023-04-03T04:12:08;1.60;;;1.00;;
46931;SDS011;32670;51.464;11.964;2023-04-03T04:14:33;1.27;;;1.00;;
46931;SDS011;32670;51.464;11.964;2023-04-03T04:16:59;1.10;;;1.00;;
46931;SDS011;32670;51.464;11.964;2023-04-03T04:19:24;1.93;;;1.00;;
46931;SDS011;32670;51.464;11.964;2023-04-03T04:21:50;1.00;;;0.90;;
46931;SDS011;32670;51.464;11.964;2023-04-03T04:24:15;1.40;;;0.97;;
46931;SDS011;32670;51.464;11.964;2023-04-03T04:26:41;1.30;;;1.20;;
46931;SDS011;32670;51.464;11.964;2023-04-03T04:29:08;2.37;;;1.00;;
46931;SDS011;32670;51.464;11.964;2023-04-03T04:31:34;1.33;;;1.00;;
46931;SDS011;32670;51.464;11.964;2023-04-03T04:33:59;3.07;;;1.10;;
46931;SDS011;32670;51.464;11.964;2023-04-03T04:36:25;1.20;;;1.00;;
46931;SDS011;32670;51.464;11.964;2023-04-03T04:38:51;2.10;;;1.10;;
46931;SDS011;32670;51.464;11.964;2023-04-03T04:41:18;1.23;;;1.00;;
46931;SDS011;32670;51.464;11.964;2023-04-03T04:43:48;2.17;;;1.27;;
46931;SDS011;32670;51.464;11.964;2023-04-03T04:46:14;3.87;;;1.13;;
46931;SDS011;32670;51.464;11.964;2023-04-03T04:48:39;8.13;;;1.37;;
46931;SDS011;32670;51.464;11.964;2023-04-03T04:51:05;8.43;;;1.40;;
46931;SDS011;32670;51.464;11.964;2023-04-03T04:53:30;3.13;;;1.63;;
46931;SDS011;32670;51.464;11.964;2023-04-03T04:55:56;4.57;;;1.60;;
46931;SDS011;32670;51.464;11.964;2023-04-03T04:58:22;3.57;;;1.57;;
46931;SDS011;32670;51.464;11.964;2023-04-03T05:00:47;3.67;;;1.70;;
46931;SDS011;32670;51.464;11.964;2023-04-03T05:03:13;2.50;;;1.50;;
46931;SDS011;32670;51.464;11.964;2023-04-03T05:05:38;6.20;;;1.53;;
46931;SDS011;32670;51.464;11.964;2023-04-03T05:08:04;2.67;;;1.53;;
46931;SDS011;32670;51.464;11.964;2023-04-03T05:10:30;3.10;;;1.60;;
46931;SDS011;32670;51.464;11.964;2023-04-03T05:12:56;2.77;;;1.70;;
46931;SDS011;32670;51.464;11.964;2023-04-03T05:15:22;3.90;;;1.83;;
46931;SDS011;32670;51.464;11.964;2023-04-03T05:17:48;4.57;;;1.80;;
46931;SDS011;32670;51.464;11.964;2023-04-03T05:20:14;3.73;;;1.70;;
46931;SDS011;32670;51.464;11.964;2023-04-03T05:22:39;2.97;;;1.70;;
46931;SDS011;32670;51.464;11.964;2023-04-03T05:25:05;3.33;;;1.80;;
46931;SDS011;32670;51.464;11.964;2023-04-03T05:27:31;3.27;;;1.40;;
46931;SDS011;32670;51.464;11.964;2023-04-03T05:29:57;1.93;;;1.43;;
46931;SDS011;32670;51.464;11.964;2023-04-03T05:32:23;2.83;;;1.57;;
46931;SDS011;32670;51.464;11.964;2023-04-03T05:34:50;2.17;;;1.50;;
46931;SDS011;32670;51.464;11.964;2023-04-03T05:37:16;3.83;;;1.77;;
46931;SDS011;32670;51.464;11.964;2023-04-03T05:39:42;2.80;;;1.33;;
46931;SDS011;32670;51.464;11.964;2023-04-03T05:42:07;4.00;;;1.60;;
46931;SDS011;32670;51.464;11.964;2023-04-03T05:44:33;2.80;;;1.60;;
46931;SDS011;32670;51.464;11.964;2023-04-03T05:46:59;3.00;;;1.50;;
46931;SDS011;32670;51.464;11.964;2023-04-03T05:49:24;4.47;;;1.70;;
46931;SDS011;32670;51.464;11.964;2023-04-03T05:51:50;3.57;;;1.50;;
46931;SDS011;32670;51.464;11.964;2023-04-03T05:54:20;6.30;;;2.23;;
46931;SDS011;32670;51.464;11.964;2023-04-03T05:56:49;7.37;;;1.73;;
46931;SDS011;32670;51.464;11.964;2023-04-03T05:59:15;8.87;;;1.50;;
46931;SDS011;32670;51.464;11.964;2023-04-03T06:01:41;5.67;;;1.73;;
46931;SDS011;32670;51.464;11.964;2023-04-03T06:04:06;10.27;;;1.77;;
46931;SDS011;32670;51.464;11.964;2023-04-03T06:06:50;3.10;;;1.67;;
46931;SDS011;32670;51.464;11.964;2023-04-03T06:09:17;5.87;;;1.50;;
46931;SDS011;32670;51.464;11.964;2023-04-03T06:11:44;4.17;;;1.53;;
46931;SDS011;32670;51.464;11.964;2023-04-03T06:14:11;2.53;;;1.43;;
46931;SDS011;32670;51.464;11.964;2023-04-03T06:16:37;3.87;;;1.33;;
46931;SDS011;32670;51.464;11.964;2023-04-03T06:19:03;5.27;;;1.63;;
46931;SDS011;32670;51.464;11.964;2023-04-03T06:21:29;2.80;;;1.50;;
46931;SDS011;32670;51.464;11.964;2023-04-03T06:23:55;2.33;;;1.30;;
46931;SDS011;32670;51.464;11.964;2023-04-03T06:26:20;3.67;;;1.30;;
46931;SDS011;32670;51.464;11.964;2023-04-03T06:28:47;6.00;;;1.53;;
46931;SDS011;32670;51.464;11.964;2023-04-03T06:31:12;2.87;;;1.23;;
46931;SDS011;32670;51.464;11.964;2023-04-03T06:33:38;2.50;;;1.27;;
46931;SDS011;32670;51.464;11.964;2023-04-03T06:36:04;3.73;;;1.53;;
46931;SDS011;32670;51.464;11.964;2023-04-03T06:38:30;2.50;;;1.53;;
46931;SDS011;32670;51.464;11.964;2023-04-03T06:40:56;1.73;;;1.10;;
46931;SDS011;32670;51.464;11.964;2023-04-03T06:43:21;1.77;;;1.10;;
46931;SDS011;32670;51.464;11.964;2023-04-03T06:45:47;3.90;;;1.50;;
46931;SDS011;32670;51.464;11.964;2023-04-03T06:48:12;1.60;;;1.10;;
46931;SDS011;32670;51.464;11.964;2023-04-03T06:50:38;3.40;;;1.40;;
46931;SDS011;32670;51.464;11.964;2023-04-03T06:53:04;2.40;;;1.30;;
46931;SDS011;32670;51.464;11.964;2023-04-03T06:55:29;2.90;;;1.40;;
46931;SDS011;32670;51.464;11.964;2023-04-03T06:57:55;2.93;;;1.40;;
46931;SDS011;32670;51.464;11.964;2023-04-03T07:00:20;4.00;;;1.23;;
46931;SDS011;32670;51.464;11.964;2023-04-03T07:02:46;1.77;;;1.20;;
46931;SDS011;32670;51.464;11.964;2023-04-03T07:05:12;2.43;;;1.23;;
46931;SDS011;32670;51.464;11.964;2023-04-03T07:07:38;2.17;;;1.10;;
46931;SDS011;32670;51.464;11.964;2023-04-03T07:10:03;3.17;;;1.20;;
46931;SDS011;32670;51.464;11.964;2023-04-03T07:12:31;2.43;;;1.10;;
46931;SDS011;32670;51.464;11.964;2023-04-03T07:14:56;1.43;;;0.90;;
46931;SDS011;32670;51.464;11.964;2023-04-03T07:17:22;1.90;;;0.90;;
46931;SDS011;32670;51.464;11.964;2023-04-03T07:19:47;1.10;;;1.00;;
46931;SDS011;32670;51.464;11.964;2023-04-03T07:22:13;1.70;;;0.90;;
46931;SDS011;32670;51.464;11.964;2023-04-03T07:24:38;2.67;;;1.37;;
46931;SDS011;32670;51.464;11.964;2023-04-03T07:27:04;2.70;;;1.10;;
46931;SDS011;32670;51.464;11.964;2023-04-03T07:29:30;1.23;;;0.90;;
46931;SDS011;32670;51.464;11.964;2023-04-03T07:31:56;2.00;;;1.03;;
46931;SDS011;32670;51.464;11.964;2023-04-03T07:34:21;2.60;;;1.40;;
46931;SDS011;32670;51.464;11.964;2023-04-03T07:36:47;1.80;;;1.10;;
46931;SDS011;32670;51.464;11.964;2023-04-03T07:39:12;1.87;;;1.10;;
46931;SDS011;32670;51.464;11.964;2023-04-03T07:41:38;1.77;;;1.10;;
46931;SDS011;32670;51.464;11.964;2023-04-03T07:44:03;1.90;;;1.07;;
46931;SDS011;32670;51.464;11.964;2023-04-03T07:46:30;2.83;;;1.10;;
46931;SDS011;32670;51.464;11.964;2023-04-03T07:48:55;1.00;;;0.90;;
46931;SDS011;32670;51.464;11.964;2023-04-03T07:51:21;2.10;;;1.00;;
46931;SDS011;32670;51.464;11.964;2023-04-03T07:53:47;1.37;;;1.00;;
46931;SDS011;32670;51.464;11.964;2023-04-03T07:56:13;1.50;;;1.00;;
46931;SDS011;32670;51.464;11.964;2023-04-03T07:58:39;1.83;;;1.10;;
46931;SDS011;32670;51.464;11.964;2023-04-03T08:01:04;1.53;;;1.00;;
46931;SDS011;32670;51.464;11.964;2023-04-03T08:03:31;2.07;;;0.90;;
46931;SDS011;32670;51.464;11.964;2023-04-03T08:06:00;1.30;;;0.93;;
46931;SDS011;32670;51.464;11.964;2023-04-03T08:08:30;4.07;;;1.40;;
46931;SDS011;32670;51.464;11.964;2023-04-03T08:10:58;1.53;;;1.23;;
46931;SDS011;32670;51.464;11.964;2023-04-03T08:13:24;1.77;;;1.40;;
46931;SDS011;32670;51.464;11.964;2023-04-03T08:15:50;2.87;;;1.20;;
46931;SDS011;32670;51.464;11.964;2023-04-03T08:18:16;5.73;;;1.10;;
46931;SDS011;32670;51.464;11.964;2023-04-03T08:20:42;2.13;;;1.30;;
46931;SDS011;32670;51.464;11.964;2023-04-03T08:23:08;1.83;;;1.10;;
46931;SDS011;32670;51.464;11.964;2023-04-03T08:25:38;2.20;;;1.27;;
46931;SDS011;32670;51.464;11.964;2023-04-03T08:28:07;1.83;;;1.10;;
46931;SDS011;32670;51.464;11.964;2023-04-03T08:30:34;1.30;;;1.00;;
46931;SDS011;32670;51.464;11.964;2023-04-03T08:33:01;1.40;;;1.17;;
46931;SDS011;32670;51.464;11.964;2023-04-03T08:35:27;1.57;;;1.40;;
46931;SDS011;32670;51.464;11.964;2023-04-03T08:37:53;1.10;;;0.90;;
46931;SDS011;32670;51.464;11.964;2023-04-03T08:40:18;1.80;;;1.20;;
46931;SDS011;32670;51.464;11.964;2023-04-03T08:45:44;1.10;;;1.00;;
46931;SDS011;32670;51.464;11.964;2023-04-03T08:48:26;1.63;;;1.20;;
46931;SDS011;32670;51.464;11.964;2023-04-03T08:51:00;2.43;;;1.27;;
46931;SDS011;32670;51.464;11.964;2023-04-03T08:53:31;1.27;;;1.17;;
46931;SDS011;32670;51.464;11.964;2023-04-03T08:56:05;2.00;;;1.37;;
46931;SDS011;32670;51.464;11.964;2023-04-03T08:58:40;3.07;;;1.17;;
46931;SDS011;32670;51.464;11.964;2023-04-03T09:01:19;1.47;;;0.93;;
46931;SDS011;32670;51.464;11.964;2023-04-03T09:03:47;1.73;;;1.30;;
46931;SDS011;32670;51.464;11.964;2023-04-03T09:06:26;3.13;;;1.60;;
46931;SDS011;32670;51.464;11.964;2023-04-03T09:09:00;1.70;;;1.53;;
46931;SDS011;32670;51.464;11.964;2023-04-03T09:11:46;1.50;;;1.23;;
46931;SDS011;32670;51.464;11.964;2023-04-03T09:14:26;1.40;;;1.30;;
46931;SDS011;32670;51.464;11.964;2023-04-03T09:17:11;2.00;;;1.50;;
46931;SDS011;32670;51.464;11.964;2023-04-03T09:20:01;3.33;;;1.40;;
46931;SDS011;32670;51.464;11.964;2023-04-03T09:22:31;1.50;;;1.10;;
46931;SDS011;32670;51.464;11.964;2023-04-03T09:25:15;1.30;;;1.20;;
46931;SDS011;32670;51.464;11.964;2023-04-03T09:27:43;1.77;;;1.40;;
46931;SDS011;32670;51.464;11.964;2023-04-03T09:30:13;1.23;;;1.13;;
46931;SDS011;32670;51.464;11.964;2023-04-03T09:32:41;1.77;;;1.23;;
46931;SDS011;32670;51.464;11.964;2023-04-03T09:35:23;1.17;;;1.03;;
46931;SDS011;32670;51.464;11.964;2023-04-03T09:38:13;1.87;;;1.40;;
46931;SDS011;32670;51.464;11.964;2023-04-03T09:41:05;1.23;;;1.13;;
46931;SDS011;32670;51.464;11.964;2023-04-03T09:43:33;1.33;;;1.00;;
46931;SDS011;32670;51.464;11.964;2023-04-03T09:48:58;1.07;;;0.90;;
46931;SDS011;32670;51.464;11.964;2023-04-03T09:51:26;1.47;;;1.13;;
46931;SDS011;32670;51.464;11.964;2023-04-03T09:53:53;1.47;;;1.13;;
46931;SDS011;32670;51.464;11.964;2023-04-03T09:56:20;1.10;;;1.00;;
46931;SDS011;32670;51.464;11.964;2023-04-03T10:04:08;1.20;;;1.10;;
46931;SDS011;32670;51.464;11.964;2023-04-03T10:06:44;1.20;;;1.00;;
46931;SDS011;32670;51.464;11.964;2023-04-03T10:09:19;1.17;;;1.07;;
46931;SDS011;32670;51.464;11.964;2023-04-03T10:14:34;1.10;;;1.00;;
46931;SDS011;32670;51.464;11.964;2023-04-03T10:17:03;1.37;;;1.10;;
46931;SDS011;32670;51.464;11.964;2023-04-03T10:19:47;1.17;;;1.00;;
46931;SDS011;32670;51.464;11.964;2023-04-03T10:22:20;1.23;;;1.07;;
46931;SDS011;32670;51.464;11.964;2023-04-03T10:25:03;1.13;;;1.00;;
46931;SDS011;32670;51.464;11.964;2023-04-03T10:27:42;1.20;;;1.00;;
46931;SDS011;32670;51.464;11.964;2023-04-03T10:33:20;1.20;;;1.00;;
46931;SDS011;32670;51.464;11.964;2023-04-03T10:38:38;1.27;;;1.13;;
46931;SDS011;32670;51.464;11.964;2023-04-03T10:44:30;1.43;;;1.00;;
46931;SDS011;32670;51.464;11.964;2023-04-03T10:47:21;1.70;;;1.07;;
46931;SDS011;32670;51.464;11.964;2023-04-03T10:52:48;1.20;;;1.10;;
46931;SDS011;32670;51.464;11.964;2023-04-03T10:57:56;1.77;;;1.20;;
46931;SDS011;32670;51.464;11.964;2023-04-03T11:00:26;0.80;;;0.80;;
46931;SDS011;32670;51.464;11.964;2023-04-03T11:03:27;0.93;;;0.87;;
46931;SDS011;32670;51.464;11.964;2023-04-03T11:06:04;0.93;;;0.87;;
46931;SDS011;32670;51.464;11.964;2023-04-03T11:08:35;1.17;;;1.00;;
46931;SDS011;32670;51.464;11.964;2023-04-03T11:11:20;1.03;;;1.00;;
46931;SDS011;32670;51.464;11.964;2023-04-03T11:13:59;1.13;;;0.97;;
46931;SDS011;32670;51.464;11.964;2023-04-03T11:16:28;0.90;;;0.90;;
46931;SDS011;32670;51.464;11.964;2023-04-03T11:21:39;1.00;;;0.90;;
46931;SDS011;32670;51.464;11.964;2023-04-03T11:24:23;1.47;;;1.00;;
46931;SDS011;32670;51.464;11.964;2023-04-03T11:26:52;1.10;;;1.00;;
46931;SDS011;32670;51.464;11.964;2023-04-03T11:29:24;0.93;;;0.90;;
46931;SDS011;32670;51.464;11.964;2023-04-03T11:32:03;0.90;;;0.90;;
46931;SDS011;32670;51.464;11.964;2023-04-03T11:34:42;1.00;;;0.90;;
46931;SDS011;32670;51.464;11.964;2023-04-03T11:37:12;0.80;;;0.80;;
46931;SDS011;32670;51.464;11.964;2023-04-03T11:39:53;0.73;;;0.73;;
46931;SDS011;32670;51.464;11.964;2023-04-03T11:42:31;1.10;;;1.00;;
46931;SDS011;32670;51.464;11.964;2023-04-03T11:47:55;1.00;;;0.90;;
46931;SDS011;32670;51.464;11.964;2023-04-03T12:05:58;1.20;;;0.90;;
46931;SDS011;32670;51.464;11.964;2023-04-03T12:13:38;1.40;;;1.00;;
46931;SDS011;32670;51.464;11.964;2023-04-03T12:16:06;1.07;;;1.00;;
46931;SDS011;32670;51.464;11.964;2023-04-03T12:21:18;1.10;;;0.90;;
46931;SDS011;32670;51.464;11.964;2023-04-03T12:26:48;1.03;;;0.93;;
46931;SDS011;32670;51.464;11.964;2023-04-03T12:29:33;0.83;;;0.80;;
46931;SDS011;32670;51.464;11.964;2023-04-03T12:35:24;1.40;;;1.30;;
46931;SDS011;32670;51.464;11.964;2023-04-03T12:41:13;1.83;;;1.37;;
46931;SDS011;32670;51.464;11.964;2023-04-03T12:43:50;1.50;;;1.40;;
46931;SDS011;32670;51.464;11.964;2023-04-03T12:46:47;1.50;;;1.27;;
46931;SDS011;32670;51.464;11.964;2023-04-03T12:49:37;1.30;;;1.10;;
46931;SDS011;32670;51.464;11.964;2023-04-03T12:52:04;1.83;;;1.30;;
46931;SDS011;32670;51.464;11.964;2023-04-03T12:54:41;1.77;;;1.43;;
46931;SDS011;32670;51.464;11.964;2023-04-03T12:57:20;4.17;;;1.20;;
46931;SDS011;32670;51.464;11.964;2023-04-03T12:59:49;1.23;;;1.13;;
46931;SDS011;32670;51.464;11.964;2023-04-03T13:02:17;1.73;;;1.20;;
46931;SDS011;32670;51.464;11.964;2023-04-03T13:04:44;1.67;;;1.27;;
46931;SDS011;32670;51.464;11.964;2023-04-03T13:07:27;1.43;;;1.20;;
46931;SDS011;32670;51.464;11.964;2023-04-03T13:09:59;2.43;;;1.40;;
46931;SDS011;32670;51.464;11.964;2023-04-03T13:12:26;2.00;;;1.20;;
46931;SDS011;32670;51.464;11.964;2023-04-03T13:14:53;2.27;;;1.27;;
46931;SDS011;32670;51.464;11.964;2023-04-03T13:17:21;1.33;;;1.20;;
46931;SDS011;32670;51.464;11.964;2023-04-03T13:19:46;1.57;;;1.10;;
46931;SDS011;32670;51.464;11.964;2023-04-03T13:25:04;1.30;;;1.20;;
46931;SDS011;32670;51.464;11.964;2023-04-03T13:27:33;2.00;;;1.20;;
46931;SDS011;32670;51.464;11.964;2023-04-03T13:29:59;1.37;;;1.10;;
46931;SDS011;32670;51.464;11.964;2023-04-03T13:32:29;1.23;;;1.13;;
46931;SDS011;32670;51.464;11.964;2023-04-03T13:34:56;1.30;;;1.13;;
46931;SDS011;32670;51.464;11.964;2023-04-03T13:37:23;1.30;;;1.10;;
46931;SDS011;32670;51.464;11.964;2023-04-03T13:42:34;1.37;;;1.20;;
46931;SDS011;32670;51.464;11.964;2023-04-03T13:47:53;1.20;;;1.10;;
46931;SDS011;32670;51.464;11.964;2023-04-03T13:53:30;1.43;;;1.20;;
46931;SDS011;32670;51.464;11.964;2023-04-03T13:56:05;1.30;;;1.00;;
46931;SDS011;32670;51.464;11.964;2023-04-03T13:58:33;1.87;;;1.20;;
46931;SDS011;32670;51.464;11.964;2023-04-03T14:03:37;1.20;;;1.10;;
46931;SDS011;32670;51.464;11.964;2023-04-03T14:06:12;1.10;;;1.00;;
46931;SDS011;32670;51.464;11.964;2023-04-03T14:08:40;1.10;;;1.00;;
46931;SDS011;32670;51.464;11.964;2023-04-03T14:11:08;1.10;;;1.00;;
46931;SDS011;32670;51.464;11.964;2023-04-03T14:13:40;1.20;;;1.10;;
46931;SDS011;32670;51.464;11.964;2023-04-03T14:16:06;2.73;;;1.10;;
46931;SDS011;32670;51.464;11.964;2023-04-03T14:18:32;1.10;;;0.97;;
46931;SDS011;32670;51.464;11.964;2023-04-03T14:20:57;1.00;;;0.90;;
46931;SDS011;32670;51.464;11.964;2023-04-03T14:23:23;1.73;;;1.10;;
46931;SDS011;32670;51.464;11.964;2023-04-03T14:25:48;2.20;;;0.90;;
46931;SDS011;32670;51.464;11.964;2023-04-03T14:28:16;1.17;;;1.07;;
46931;SDS011;32670;51.464;11.964;2023-04-03T14:30:44;1.03;;;0.97;;
46931;SDS011;32670;51.464;11.964;2023-04-03T14:33:16;0.90;;;0.90;;
46931;SDS011;32670;51.464;11.964;2023-04-03T14:35:43;1.03;;;0.93;;
46931;SDS011;32670;51.464;11.964;2023-04-03T14:38:20;1.10;;;1.00;;
46931;SDS011;32670;51.464;11.964;2023-04-03T14:40:50;1.47;;;1.10;;
46931;SDS011;32670;51.464;11.964;2023-04-03T14:43:16;1.20;;;1.10;;
46931;SDS011;32670;51.464;11.964;2023-04-03T14:45:43;0.80;;;0.80;;
46931;SDS011;32670;51.464;11.964;2023-04-03T14:48:10;0.97;;;0.80;;
46931;SDS011;32670;51.464;11.964;2023-04-03T14:50:42;1.20;;;1.00;;
46931;SDS011;32670;51.464;11.964;2023-04-03T14:53:09;1.13;;;0.80;;
46931;SDS011;32670;51.464;11.964;2023-04-03T14:55:36;1.17;;;0.90;;
46931;SDS011;32670;51.464;11.964;2023-04-03T14:58:02;1.10;;;1.00;;
46931;SDS011;32670;51.464;11.964;2023-04-03T15:00:27;0.80;;;0.80;;
46931;SDS011;32670;51.464;11.964;2023-04-03T15:02:53;0.80;;;0.80;;
46931;SDS011;32670;51.464;11.964;2023-04-03T15:05:18;0.93;;;0.90;;
46931;SDS011;32670;51.464;11.964;2023-04-03T15:07:46;1.33;;;1.10;;
46931;SDS011;32670;51.464;11.964;2023-04-03T15:10:19;1.00;;;0.90;;
46931;SDS011;32670;51.464;11.964;2023-04-03T15:12:48;1.97;;;0.90;;
46931;SDS011;32670;51.464;11.964;2023-04-03T15:15:15;1.10;;;1.00;;
46931;SDS011;32670;51.464;11.964;2023-04-03T15:17:41;1.20;;;1.10;;
46931;SDS011;32670;51.464;11.964;2023-04-03T15:20:14;1.13;;;0.87;;
46931;SDS011;32670;51.464;11.964;2023-04-03T15:22:42;1.40;;;0.80;;
46931;SDS011;32670;51.464;11.964;2023-04-03T15:25:08;0.97;;;0.90;;
46931;SDS011;32670;51.464;11.964;2023-04-03T15:27:35;0.90;;;0.90;;
46931;SDS011;32670;51.464;11.964;2023-04-03T15:30:00;0.80;;;0.80;;
46931;SDS011;32670;51.464;11.964;2023-04-03T15:32:26;1.20;;;1.10;;
46931;SDS011;32670;51.464;11.964;2023-04-03T15:34:51;0.87;;;0.87;;
46931;SDS011;32670;51.464;11.964;2023-04-03T15:37:18;1.10;;;1.00;;
46931;SDS011;32670;51.464;11.964;2023-04-03T15:39:44;1.17;;;1.07;;
46931;SDS011;32670;51.464;11.964;2023-04-03T15:42:09;0.80;;;0.80;;
46931;SDS011;32670;51.464;11.964;2023-04-03T15:44:37;0.83;;;0.80;;
46931;SDS011;32670;51.464;11.964;2023-04-03T15:47:02;1.03;;;0.97;;
46931;SDS011;32670;51.464;11.964;2023-04-03T15:49:28;1.00;;;0.90;;
46931;SDS011;32670;51.464;11.964;2023-04-03T15:51:54;1.27;;;1.00;;
46931;SDS011;32670;51.464;11.964;2023-04-03T15:54:20;1.00;;;1.00;;
46931;SDS011;32670;51.464;11.964;2023-04-03T15:56:45;0.80;;;0.80;;
46931;SDS011;32670;51.464;11.964;2023-04-03T15:59:11;0.93;;;0.90;;
46931;SDS011;32670;51.464;11.964;2023-04-03T16:01:37;0.70;;;0.70;;
46931;SDS011;32670;51.464;11.964;2023-04-03T16:04:03;0.90;;;0.90;;
46931;SDS011;32670;51.464;11.964;2023-04-03T16:06:30;0.90;;;0.90;;
46931;SDS011;32670;51.464;11.964;2023-04-03T16:08:56;0.70;;;0.70;;